Time;durP1;ratioP1;P1;durP2;ratioP2;P2;SDS_P1;SDS_P2;PMS_P1;PMS_P2;Temp;Humidity;BMP_temperature;BMP_pressure;BME280_temperature;BME280_humidity;BME280_pressure;Samples;Min_cycle;Max_cycle;Signal;HPM_P1;HPM_P2
2023/03/07 00:01:04;;;;;;;14.60;11.27;;;;;;;;;;5071441;28;20753;-80
2023/03/07 00:03:32;;;;;;;16.10;11.63;;;;;;;;;;5072100;28;20604;-79
2023/03/07 00:06:02;;;;;;;13.03;9.83;;;;;;;;;;5085344;28;20258;-79
2023/03/07 00:08:29;;;;;;;15.43;10.53;;;;;;;;;;5071430;28;20692;-79
2023/03/07 00:10:55;;;;;;;12.10;10.27;;;;;;;;;;5076460;28;20192;-79
2023/03/07 00:13:22;;;;;;;14.27;10.73;;;;;;;;;;5080811;28;20302;-79
2023/03/07 00:15:49;;;;;;;16.23;12.03;;;;;;;;;;5084428;28;20757;-80
2023/03/07 00:18:17;;;;;;;14.63;11.13;;;;;;;;;;5083195;28;20204;-79
2023/03/07 00:20:44;;;;;;;16.07;11.90;;;;;;;;;;5078134;28;20203;-79
2023/03/07 00:23:11;;;;;;;13.90;11.30;;;;;;;;;;5091812;28;20200;-79
2023/03/07 00:25:38;;;;;;;12.67;10.23;;;;;;;;;;5085923;28;20277;-79
2023/03/07 00:28:05;;;;;;;16.57;12.60;;;;;;;;;;5071063;28;20752;-79
2023/03/07 00:30:31;;;;;;;14.90;11.20;;;;;;;;;;5071183;28;20676;-79
2023/03/07 00:32:58;;;;;;;14.80;10.53;;;;;;;;;;5084020;28;20208;-79
2023/03/07 00:35:26;;;;;;;12.73;9.73;;;;;;;;;;5085116;28;20232;-78
2023/03/07 00:37:53;;;;;;;13.33;10.43;;;;;;;;;;5071656;28;20209;-80
2023/03/07 00:40:20;;;;;;;12.00;9.60;;;;;;;;;;5084484;28;20205;-80
2023/03/07 00:42:46;;;;;;;13.83;9.97;;;;;;;;;;5071389;28;20216;-79
2023/03/07 00:45:13;;;;;;;17.57;11.47;;;;;;;;;;5071025;28;20197;-79
2023/03/07 00:47:40;;;;;;;13.73;9.83;;;;;;;;;;5071226;28;20201;-80
2023/03/07 00:50:07;;;;;;;15.67;11.67;;;;;;;;;;5077775;28;20763;-79
2023/03/07 00:52:35;;;;;;;16.40;11.53;;;;;;;;;;5077796;28;20632;-80
2023/03/07 00:55:02;;;;;;;18.47;14.33;;;;;;;;;;5083392;28;20220;-80
2023/03/07 00:57:29;;;;;;;15.63;11.70;;;;;;;;;;5085340;28;20232;-79
2023/03/07 00:59:55;;;;;;;13.07;10.87;;;;;;;;;;5091350;28;20208;-79
2023/03/07 01:02:22;;;;;;;14.43;11.63;;;;;;;;;;5091061;28;20200;-80
2023/03/07 01:04:49;;;;;;;15.90;12.27;;;;;;;;;;5091401;28;20209;-81
2023/03/07 01:07:16;;;;;;;13.80;10.77;;;;;;;;;;5089631;28;20278;-79
2023/03/07 01:09:46;;;;;;;19.40;12.63;;;;;;;;;;5070923;28;20577;-80
2023/03/07 01:12:12;;;;;;;16.00;11.70;;;;;;;;;;5085076;28;20204;-80
2023/03/07 01:14:39;;;;;;;13.60;11.83;;;;;;;;;;5091081;28;20241;-79
2023/03/07 01:17:06;;;;;;;16.60;12.33;;;;;;;;;;5089267;28;20227;-80
2023/03/07 01:19:33;;;;;;;13.73;11.30;;;;;;;;;;5070491;28;20259;-80
2023/03/07 01:21:59;;;;;;;15.97;11.53;;;;;;;;;;5084448;28;20200;-80
2023/03/07 01:24:26;;;;;;;14.63;11.00;;;;;;;;;;5079384;28;20208;-80
2023/03/07 01:26:54;;;;;;;15.83;12.40;;;;;;;;;;5090475;28;20204;-80
2023/03/07 01:29:21;;;;;;;14.60;11.80;;;;;;;;;;5090867;28;20204;-80
2023/03/07 01:31:48;;;;;;;17.00;11.17;;;;;;;;;;5090100;28;20736;-80
2023/03/07 01:34:15;;;;;;;17.70;13.70;;;;;;;;;;5081615;28;20220;-80
2023/03/07 01:36:41;;;;;;;16.60;11.67;;;;;;;;;;5085653;28;20215;-78
2023/03/07 01:39:12;;;;;;;16.00;11.60;;;;;;;;;;5081915;28;20197;-79
2023/03/07 01:41:40;;;;;;;16.07;12.67;;;;;;;;;;5073618;28;20203;-80
2023/03/07 01:44:15;;;;;;;15.07;12.27;;;;;;;;;;5080211;28;20642;-79
2023/03/07 01:46:44;;;;;;;15.20;12.47;;;;;;;;;;5083757;28;20760;-80
2023/03/07 01:49:16;;;;;;;15.53;12.57;;;;;;;;;;5070649;28;20205;-79
2023/03/07 01:51:46;;;;;;;17.37;13.40;;;;;;;;;;5076557;28;20663;-79
2023/03/07 01:54:13;;;;;;;15.30;11.90;;;;;;;;;;5076129;28;20731;-80
2023/03/07 01:56:40;;;;;;;15.53;11.50;;;;;;;;;;5090011;28;20196;-80
2023/03/07 01:59:08;;;;;;;15.23;12.03;;;;;;;;;;5090882;28;20208;-79
2023/03/07 02:01:36;;;;;;;19.23;12.77;;;;;;;;;;5085404;28;20213;-79
2023/03/07 02:04:07;;;;;;;16.57;13.13;;;;;;;;;;5075078;28;20201;-79
2023/03/07 02:06:35;;;;;;;18.37;13.10;;;;;;;;;;5093959;28;20612;-79
2023/03/07 02:09:03;;;;;;;14.37;11.97;;;;;;;;;;5091455;28;20204;-79
2023/03/07 02:11:29;;;;;;;17.83;13.20;;;;;;;;;;5082752;28;20196;-79
2023/03/07 02:13:56;;;;;;;18.03;12.50;;;;;;;;;;5080323;28;20208;-80
2023/03/07 02:16:24;;;;;;;15.53;10.87;;;;;;;;;;5093889;28;20203;-79
2023/03/07 02:18:51;;;;;;;14.57;11.87;;;;;;;;;;5077495;28;20205;-79
2023/03/07 02:21:29;;;;;;;17.43;12.10;;;;;;;;;;5083255;28;20196;-79
2023/03/07 02:24:00;;;;;;;14.70;12.73;;;;;;;;;;5075908;28;20633;-79
2023/03/07 02:26:40;;;;;;;18.20;13.47;;;;;;;;;;5085826;28;20257;-79
2023/03/07 02:29:07;;;;;;;17.97;12.67;;;;;;;;;;5067767;28;20208;-79
2023/03/07 02:31:34;;;;;;;17.77;12.33;;;;;;;;;;5093046;28;20200;-79
2023/03/07 02:34:00;;;;;;;17.93;12.40;;;;;;;;;;5080401;28;20671;-79
2023/03/07 02:36:30;;;;;;;15.50;11.73;;;;;;;;;;5092803;28;20201;-79
2023/03/07 02:38:58;;;;;;;16.27;12.13;;;;;;;;;;5073598;28;20266;-79
2023/03/07 02:41:27;;;;;;;15.93;12.50;;;;;;;;;;5088597;28;20200;-79
2023/03/07 02:43:55;;;;;;;15.73;13.33;;;;;;;;;;5093361;28;20214;-79
2023/03/07 02:46:22;;;;;;;16.03;12.47;;;;;;;;;;5093201;28;20644;-79
2023/03/07 02:48:49;;;;;;;16.20;12.07;;;;;;;;;;5093273;28;20204;-78
2023/03/07 02:51:15;;;;;;;14.20;11.13;;;;;;;;;;5078982;28;20576;-79
2023/03/07 02:53:42;;;;;;;13.77;11.37;;;;;;;;;;5093049;28;20200;-80
2023/03/07 02:56:09;;;;;;;14.70;11.63;;;;;;;;;;5093097;28;20220;-79
2023/03/07 02:58:36;;;;;;;14.60;11.57;;;;;;;;;;5083589;28;20280;-79
2023/03/07 03:01:05;;;;;;;16.07;12.13;;;;;;;;;;5086070;28;20737;-79
2023/03/07 03:03:31;;;;;;;17.20;12.27;;;;;;;;;;5083264;28;20583;-79
2023/03/07 03:05:58;;;;;;;15.63;12.53;;;;;;;;;;5092311;28;20204;-79
2023/03/07 03:08:25;;;;;;;13.83;11.37;;;;;;;;;;5093023;28;20228;-79
2023/03/07 03:10:53;;;;;;;15.10;10.70;;;;;;;;;;5088783;28;20721;-79
2023/03/07 03:13:20;;;;;;;21.53;14.57;;;;;;;;;;5083645;28;20261;-79
2023/03/07 03:15:47;;;;;;;17.40;13.00;;;;;;;;;;5092263;28;20850;-78
2023/03/07 03:18:15;;;;;;;22.63;13.43;;;;;;;;;;5092796;28;20683;-78
2023/03/07 03:20:42;;;;;;;16.87;13.90;;;;;;;;;;5092589;28;20291;-79
2023/03/07 03:23:09;;;;;;;106.97;49.00;;;;;;;;;;5082463;28;20209;-79
2023/03/07 03:25:36;;;;;;;35.40;23.37;;;;;;;;;;5090438;28;20208;-78
2023/03/07 03:28:02;;;;;;;20.73;13.53;;;;;;;;;;5092141;28;20633;-79
2023/03/07 03:30:31;;;;;;;18.47;12.53;;;;;;;;;;5078423;28;20208;-80
2023/03/07 03:32:58;;;;;;;19.60;14.03;;;;;;;;;;5092612;28;20204;-78
2023/03/07 03:35:26;;;;;;;19.20;13.57;;;;;;;;;;5092047;28;20224;-79
2023/03/07 03:37:53;;;;;;;17.73;13.57;;;;;;;;;;5092293;28;20200;-79
2023/03/07 03:40:20;;;;;;;35.20;22.10;;;;;;;;;;5083191;28;20752;-79
2023/03/07 03:42:47;;;;;;;28.03;19.03;;;;;;;;;;5089763;28;20203;-79
2023/03/07 03:45:14;;;;;;;21.93;15.47;;;;;;;;;;5091536;28;20269;-79
2023/03/07 03:47:41;;;;;;;17.17;11.73;;;;;;;;;;5091550;28;20558;-79
2023/03/07 03:50:10;;;;;;;22.83;15.43;;;;;;;;;;5091629;28;20254;-79
2023/03/07 03:52:38;;;;;;;31.60;20.40;;;;;;;;;;5091370;28;20211;-79
2023/03/07 03:55:05;;;;;;;22.30;16.67;;;;;;;;;;5086541;28;20216;-80
2023/03/07 03:57:32;;;;;;;22.33;17.17;;;;;;;;;;5082243;28;20201;-80
2023/03/07 03:59:59;;;;;;;85.57;62.83;;;;;;;;;;5091063;28;20204;-79
2023/03/07 04:02:29;;;;;;;26.13;18.00;;;;;;;;;;5088935;28;20705;-79
2023/03/07 04:04:55;;;;;;;16.03;12.77;;;;;;;;;;5083773;28;20204;-80
2023/03/07 04:07:24;;;;;;;21.47;13.33;;;;;;;;;;5078080;28;20224;-79
2023/03/07 04:09:52;;;;;;;29.63;25.73;;;;;;;;;;5091888;28;20636;-79
2023/03/07 04:12:18;;;;;;;16.13;13.93;;;;;;;;;;5087267;28;20288;-80
2023/03/07 04:14:46;;;;;;;15.57;11.90;;;;;;;;;;5091503;28;20224;-79
2023/03/07 04:17:12;;;;;;;19.03;15.30;;;;;;;;;;5091591;28;20228;-80
2023/03/07 04:19:39;;;;;;;22.27;15.30;;;;;;;;;;5091604;28;20196;-79
2023/03/07 04:22:06;;;;;;;18.53;14.40;;;;;;;;;;5078012;28;20261;-80
2023/03/07 04:24:33;;;;;;;15.77;12.40;;;;;;;;;;5090968;28;20211;-80
2023/03/07 04:27:01;;;;;;;16.93;13.67;;;;;;;;;;5091148;28;20689;-79
2023/03/07 04:29:29;;;;;;;15.23;12.23;;;;;;;;;;5091200;28;20196;-79
2023/03/07 04:31:56;;;;;;;15.67;12.40;;;;;;;;;;5091403;28;20288;-79
2023/03/07 04:34:22;;;;;;;15.50;12.57;;;;;;;;;;5091384;28;20257;-79
2023/03/07 04:36:49;;;;;;;23.60;18.03;;;;;;;;;;5086546;28;20700;-79
2023/03/07 04:39:16;;;;;;;19.90;14.00;;;;;;;;;;5082465;28;20595;-79
2023/03/07 04:41:43;;;;;;;17.73;12.53;;;;;;;;;;5090541;28;20687;-79
2023/03/07 04:44:11;;;;;;;24.57;19.00;;;;;;;;;;5091112;28;20592;-79
2023/03/07 04:46:38;;;;;;;22.83;16.60;;;;;;;;;;5090607;28;20211;-79
2023/03/07 04:49:04;;;;;;;19.27;13.87;;;;;;;;;;5090749;28;20208;-80
2023/03/07 04:51:31;;;;;;;15.10;12.50;;;;;;;;;;5088795;28;20200;-79
2023/03/07 04:53:58;;;;;;;16.20;12.07;;;;;;;;;;5090241;28;20200;-79
2023/03/07 04:56:25;;;;;;;17.50;13.50;;;;;;;;;;5089407;28;20679;-80
2023/03/07 04:58:52;;;;;;;16.00;12.60;;;;;;;;;;5089254;28;20238;-79
2023/03/07 05:01:20;;;;;;;15.27;11.83;;;;;;;;;;5089671;28;20203;-79
2023/03/07 05:03:47;;;;;;;15.80;12.07;;;;;;;;;;5089284;28;20253;-79
2023/03/07 05:06:15;;;;;;;14.30;11.83;;;;;;;;;;5089290;28;20737;-79
2023/03/07 05:08:42;;;;;;;14.47;11.20;;;;;;;;;;5082386;28;20224;-78
2023/03/07 05:11:09;;;;;;;100.20;52.67;;;;;;;;;;5069320;28;20192;-77
2023/03/07 05:13:35;;;;;;;100.43;67.60;;;;;;;;;;5089426;28;20196;-79
2023/03/07 05:16:02;;;;;;;25.63;18.37;;;;;;;;;;5086256;28;20278;-81
2023/03/07 05:18:30;;;;;;;14.73;11.27;;;;;;;;;;5069649;28;20204;-79
2023/03/07 05:20:57;;;;;;;12.53;11.13;;;;;;;;;;5073334;28;20204;-79
2023/03/07 05:23:26;;;;;;;15.60;11.77;;;;;;;;;;5077875;28;20204;-79
2023/03/07 05:25:53;;;;;;;15.17;12.20;;;;;;;;;;5068556;28;20205;-79
2023/03/07 05:28:20;;;;;;;14.20;11.53;;;;;;;;;;5086513;28;20207;-79
2023/03/07 05:30:47;;;;;;;25.90;19.83;;;;;;;;;;5079079;28;20240;-78
2023/03/07 05:33:14;;;;;;;26.47;19.10;;;;;;;;;;5083093;28;20217;-79
2023/03/07 05:35:43;;;;;;;27.40;19.00;;;;;;;;;;5082093;28;20618;-79
2023/03/07 05:38:10;;;;;;;16.87;14.50;;;;;;;;;;5088916;28;20246;-79
2023/03/07 05:40:37;;;;;;;18.47;11.90;;;;;;;;;;5068674;28;20259;-79
2023/03/07 05:43:06;;;;;;;14.07;11.00;;;;;;;;;;5088835;28;20200;-79
2023/03/07 05:45:33;;;;;;;18.67;14.40;;;;;;;;;;5075077;28;20201;-79
2023/03/07 05:48:00;;;;;;;21.63;16.13;;;;;;;;;;5093007;28;20200;-78
2023/03/07 05:50:27;;;;;;;22.80;16.03;;;;;;;;;;5092567;28;20219;-79
2023/03/07 05:52:55;;;;;;;29.57;22.40;;;;;;;;;;5093929;28;20709;-79
2023/03/07 05:55:22;;;;;;;30.53;23.10;;;;;;;;;;5092873;28;20958;-79
2023/03/07 05:57:50;;;;;;;21.17;16.80;;;;;;;;;;5083630;28;20197;-79
2023/03/07 06:00:17;;;;;;;19.57;12.67;;;;;;;;;;5077109;28;20205;-79
2023/03/07 06:02:44;;;;;;;19.57;15.03;;;;;;;;;;5094432;28;20657;-79
2023/03/07 06:05:11;;;;;;;17.80;13.87;;;;;;;;;;5080403;28;20270;-80
2023/03/07 06:07:37;;;;;;;17.93;13.63;;;;;;;;;;5083305;28;20237;-79
2023/03/07 06:10:07;;;;;;;20.07;14.33;;;;;;;;;;5078353;28;20686;-79
2023/03/07 06:12:33;;;;;;;16.97;13.63;;;;;;;;;;5094297;28;20249;-79
2023/03/07 06:15:00;;;;;;;20.37;13.80;;;;;;;;;;5093801;28;20637;-79
2023/03/07 06:17:27;;;;;;;18.43;14.57;;;;;;;;;;5088984;28;20205;-79
2023/03/07 06:19:54;;;;;;;19.93;14.23;;;;;;;;;;5074438;28;20205;-80
2023/03/07 06:22:21;;;;;;;21.90;14.23;;;;;;;;;;5087292;28;20197;-80
2023/03/07 06:24:48;;;;;;;26.57;13.60;;;;;;;;;;5085280;28;20288;-80
2023/03/07 06:27:16;;;;;;;17.20;13.93;;;;;;;;;;5088616;28;20209;-80
2023/03/07 06:29:43;;;;;;;18.37;14.03;;;;;;;;;;5085993;28;20204;-79
2023/03/07 06:32:09;;;;;;;26.90;18.30;;;;;;;;;;5093704;28;20570;-80
2023/03/07 06:34:37;;;;;;;24.20;17.13;;;;;;;;;;5093921;28;20675;-80
2023/03/07 06:37:04;;;;;;;20.73;15.50;;;;;;;;;;5079965;28;20648;-80
2023/03/07 06:39:30;;;;;;;27.07;18.53;;;;;;;;;;5081403;28;20622;-80
2023/03/07 06:41:57;;;;;;;24.93;18.73;;;;;;;;;;5092721;28;20197;-80
2023/03/07 06:44:25;;;;;;;24.17;18.90;;;;;;;;;;5093509;28;20253;-80
2023/03/07 06:46:52;;;;;;;23.83;17.03;;;;;;;;;;5072514;28;20213;-79
2023/03/07 06:49:19;;;;;;;20.13;16.37;;;;;;;;;;5086734;28;20265;-80
2023/03/07 06:51:46;;;;;;;20.20;14.90;;;;;;;;;;5093286;28;20208;-80
2023/03/07 06:54:12;;;;;;;16.17;13.17;;;;;;;;;;5092987;28;20211;-80
2023/03/07 06:56:39;;;;;;;16.50;13.17;;;;;;;;;;5092948;28;20236;-80
2023/03/07 06:59:06;;;;;;;16.43;13.30;;;;;;;;;;5092982;28;20204;-80
2023/03/07 07:01:35;;;;;;;17.60;13.77;;;;;;;;;;5093148;28;20201;-80
2023/03/07 07:04:02;;;;;;;17.13;13.80;;;;;;;;;;5079785;28;20201;-80
2023/03/07 07:06:29;;;;;;;19.33;14.77;;;;;;;;;;5092764;28;20278;-79
2023/03/07 07:08:56;;;;;;;15.90;14.13;;;;;;;;;;5091497;28;20257;-79
2023/03/07 07:11:23;;;;;;;18.90;12.67;;;;;;;;;;5081477;28;20196;-80
2023/03/07 07:13:51;;;;;;;14.00;11.40;;;;;;;;;;5091689;28;20204;-80
2023/03/07 07:16:18;;;;;;;16.80;12.03;;;;;;;;;;5081410;28;20216;-80
2023/03/07 07:18:46;;;;;;;16.50;12.10;;;;;;;;;;5093003;28;20642;-80
2023/03/07 07:21:13;;;;;;;14.73;11.60;;;;;;;;;;5092732;28;20204;-80
2023/03/07 07:23:40;;;;;;;14.17;11.70;;;;;;;;;;5092776;28;20215;-80
2023/03/07 07:26:07;;;;;;;15.93;11.97;;;;;;;;;;5092492;28;20246;-80
2023/03/07 07:28:34;;;;;;;15.23;12.13;;;;;;;;;;5092644;28;20192;-80
2023/03/07 07:31:00;;;;;;;12.67;10.57;;;;;;;;;;5092599;28;20667;-80
2023/03/07 07:33:27;;;;;;;14.87;11.03;;;;;;;;;;5092317;28;20200;-80
2023/03/07 07:35:55;;;;;;;16.23;10.40;;;;;;;;;;5081979;28;20581;-80
2023/03/07 07:38:22;;;;;;;15.37;11.37;;;;;;;;;;5087833;28;20200;-80
2023/03/07 07:40:49;;;;;;;14.77;10.87;;;;;;;;;;5092469;28;20233;-80
2023/03/07 07:43:17;;;;;;;17.17;11.87;;;;;;;;;;5092051;28;20560;-80
2023/03/07 07:45:44;;;;;;;13.70;11.03;;;;;;;;;;5092571;28;20204;-80
2023/03/07 07:48:10;;;;;;;14.07;10.43;;;;;;;;;;5078965;28;20200;-80
2023/03/07 07:50:37;;;;;;;14.10;11.77;;;;;;;;;;5080545;28;20189;-80
2023/03/07 07:53:05;;;;;;;14.53;10.43;;;;;;;;;;5090638;28;20204;-82
2023/03/07 07:55:32;;;;;;;12.80;10.63;;;;;;;;;;5092090;28;20254;-80
2023/03/07 07:57:59;;;;;;;16.37;12.63;;;;;;;;;;5091182;28;20679;-80
2023/03/07 08:00:26;;;;;;;11.33;9.20;;;;;;;;;;5078506;28;20215;-80
2023/03/07 08:02:53;;;;;;;12.90;9.90;;;;;;;;;;5065736;28;20200;-80
2023/03/07 08:05:20;;;;;;;11.33;8.53;;;;;;;;;;5092257;28;20266;-81
2023/03/07 08:07:49;;;;;;;19.83;16.63;;;;;;;;;;5091925;28;20235;-80
2023/03/07 08:10:18;;;;;;;14.93;10.10;;;;;;;;;;5091403;28;20295;-80
2023/03/07 08:12:45;;;;;;;16.10;11.37;;;;;;;;;;5078128;28;20215;-80
2023/03/07 08:15:12;;;;;;;14.13;9.17;;;;;;;;;;5079111;28;20197;-80
2023/03/07 08:17:39;;;;;;;16.90;10.43;;;;;;;;;;5090879;28;20311;-80
2023/03/07 08:20:08;;;;;;;15.77;9.67;;;;;;;;;;5091436;28;20219;-80
2023/03/07 08:22:36;;;;;;;13.77;10.57;;;;;;;;;;5078380;28;20223;-82
2023/03/07 08:25:03;;;;;;;13.67;9.13;;;;;;;;;;5091206;28;20196;-80
2023/03/07 08:27:31;;;;;;;13.03;9.37;;;;;;;;;;5065236;28;20227;-80
2023/03/07 08:29:58;;;;;;;11.87;10.00;;;;;;;;;;5090535;28;20200;-80
2023/03/07 08:32:25;;;;;;;10.80;9.40;;;;;;;;;;5091031;28;20192;-80
2023/03/07 08:34:52;;;;;;;9.33;7.73;;;;;;;;;;5090962;28;20209;-80
2023/03/07 08:37:19;;;;;;;10.27;7.97;;;;;;;;;;5091201;28;20220;-80
2023/03/07 08:39:46;;;;;;;9.63;8.30;;;;;;;;;;5091182;28;20261;-80
2023/03/07 08:42:13;;;;;;;10.27;8.10;;;;;;;;;;5091522;28;20286;-80
2023/03/07 08:44:41;;;;;;;9.53;6.97;;;;;;;;;;5091064;28;20273;-80
2023/03/07 08:47:10;;;;;;;10.23;7.97;;;;;;;;;;5082804;28;20198;-80
2023/03/07 08:49:37;;;;;;;9.37;8.37;;;;;;;;;;5084486;28;20291;-80
2023/03/07 08:52:05;;;;;;;13.73;8.60;;;;;;;;;;5079320;28;20613;-80
2023/03/07 08:54:32;;;;;;;10.83;7.67;;;;;;;;;;5090766;28;20205;-80
2023/03/07 08:56:59;;;;;;;9.80;7.73;;;;;;;;;;5091057;28;20223;-79
2023/03/07 08:59:26;;;;;;;8.67;7.00;;;;;;;;;;5090490;28;20203;-80
2023/03/07 09:01:55;;;;;;;11.23;7.80;;;;;;;;;;5081888;28;20201;-80
2023/03/07 09:04:22;;;;;;;9.93;8.23;;;;;;;;;;5084205;28;20708;-80
2023/03/07 09:06:48;;;;;;;8.80;7.23;;;;;;;;;;5080017;28;20285;-80
2023/03/07 09:09:16;;;;;;;9.70;7.20;;;;;;;;;;5090327;28;20690;-80
2023/03/07 09:11:42;;;;;;;8.17;7.30;;;;;;;;;;5090712;28;20197;-80
2023/03/07 09:14:09;;;;;;;8.20;6.80;;;;;;;;;;5090458;28;20206;-80
2023/03/07 09:16:36;;;;;;;7.63;6.47;;;;;;;;;;5090660;28;20219;-82
2023/03/07 09:19:04;;;;;;;7.17;6.10;;;;;;;;;;5090918;28;20271;-80
2023/03/07 09:21:31;;;;;;;7.67;6.80;;;;;;;;;;5090594;28;20215;-80
2023/03/07 09:23:58;;;;;;;8.57;6.87;;;;;;;;;;5076967;28;20204;-81
2023/03/07 09:26:24;;;;;;;6.73;5.83;;;;;;;;;;5090845;28;20261;-80
2023/03/07 09:28:51;;;;;;;8.40;6.37;;;;;;;;;;5086081;28;20201;-80
2023/03/07 09:31:18;;;;;;;10.23;6.70;;;;;;;;;;5070616;28;20193;-80
2023/03/07 09:33:47;;;;;;;9.67;6.67;;;;;;;;;;5075672;28;20277;-81
2023/03/07 09:36:16;;;;;;;8.07;5.67;;;;;;;;;;5090755;28;20209;-80
2023/03/07 09:38:43;;;;;;;7.40;6.27;;;;;;;;;;5091173;28;20200;-81
2023/03/07 09:41:21;;;;;;;7.37;6.67;;;;;;;;;;5090896;28;20300;-80
2023/03/07 09:43:54;;;;;;;8.13;6.37;;;;;;;;;;5090799;28;20204;-80
2023/03/07 09:46:30;;;;;;;8.47;6.67;;;;;;;;;;5090615;28;20208;-81
2023/03/07 09:49:19;;;;;;;7.53;6.43;;;;;;;;;;5080669;28;20208;-80
2023/03/07 09:51:50;;;;;;;8.17;7.20;;;;;;;;;;5063904;28;20290;-82
2023/03/07 09:54:20;;;;;;;7.83;6.73;;;;;;;;;;5076786;28;20208;-81
2023/03/07 09:56:49;;;;;;;8.90;6.40;;;;;;;;;;5074796;28;20226;-80
2023/03/07 09:59:21;;;;;;;11.90;6.80;;;;;;;;;;5080224;28;20272;-81
2023/03/07 10:01:50;;;;;;;6.37;5.77;;;;;;;;;;5081172;28;20744;-80
2023/03/07 10:04:21;;;;;;;6.93;6.27;;;;;;;;;;5073583;28;20212;-80
2023/03/07 10:06:53;;;;;;;8.63;5.83;;;;;;;;;;5090488;28;20208;-80
2023/03/07 10:09:22;;;;;;;9.53;6.50;;;;;;;;;;5090339;28;20201;-80
2023/03/07 10:11:59;;;;;;;7.43;5.90;;;;;;;;;;5078676;28;20206;-80
2023/03/07 10:14:51;;;;;;;6.50;5.77;;;;;;;;;;5090286;28;20200;-80
2023/03/07 10:17:26;;;;;;;7.27;5.90;;;;;;;;;;5086603;28;20292;-80
2023/03/07 10:19:56;;;;;;;5.47;4.93;;;;;;;;;;5081400;28;20206;-80
2023/03/07 10:22:31;;;;;;;6.57;5.30;;;;;;;;;;5086989;28;20661;-80
2023/03/07 10:25:08;;;;;;;10.30;6.03;;;;;;;;;;5086996;28;20257;-80
2023/03/07 10:27:35;;;;;;;5.87;5.13;;;;;;;;;;5061577;28;20201;-80
2023/03/07 10:30:10;;;;;;;6.47;5.00;;;;;;;;;;5087373;28;20200;-81
2023/03/07 10:32:39;;;;;;;7.80;5.17;;;;;;;;;;5083159;28;20205;-81
2023/03/07 10:35:16;;;;;;;7.53;4.97;;;;;;;;;;5093838;28;20201;-84
2023/03/07 10:37:52;;;;;;;5.73;5.13;;;;;;;;;;5093971;28;20228;-80
2023/03/07 10:40:24;;;;;;;6.67;5.97;;;;;;;;;;5087518;28;20198;-80
2023/03/07 10:42:52;;;;;;;7.00;5.43;;;;;;;;;;5086934;28;20290;-80
2023/03/07 10:45:19;;;;;;;6.90;5.93;;;;;;;;;;5060340;28;20213;-80
2023/03/07 10:47:45;;;;;;;8.33;5.73;;;;;;;;;;5086730;28;20207;-80
2023/03/07 10:50:34;;;;;;;8.17;6.17;;;;;;;;;;5060029;28;20216;-80
2023/03/07 10:53:04;;;;;;;10.53;5.90;;;;;;;;;;5089879;28;20290;-80
2023/03/07 10:55:42;;;;;;;6.37;5.13;;;;;;;;;;5083351;28;20204;-80
2023/03/07 10:58:18;;;;;;;7.17;5.33;;;;;;;;;;5086740;28;20231;-80
2023/03/07 11:00:47;;;;;;;7.37;5.20;;;;;;;;;;5086299;28;20752;-79
2023/03/07 11:03:25;;;;;;;6.53;5.37;;;;;;;;;;5086493;28;20204;-80
2023/03/07 11:05:52;;;;;;;5.50;4.87;;;;;;;;;;5087834;28;20205;-80
2023/03/07 11:08:28;;;;;;;5.80;5.00;;;;;;;;;;5084735;28;20242;-80
2023/03/07 11:10:55;;;;;;;7.67;4.80;;;;;;;;;;5089800;28;20194;-80
2023/03/07 11:13:23;;;;;;;4.90;4.30;;;;;;;;;;5093039;28;20196;-80
2023/03/07 11:15:50;;;;;;;8.63;5.27;;;;;;;;;;5079649;28;20207;-79
2023/03/07 11:18:28;;;;;;;5.50;4.17;;;;;;;;;;5093535;28;20256;-80
2023/03/07 11:20:56;;;;;;;5.23;4.07;;;;;;;;;;5092723;28;20240;-79
2023/03/07 11:23:25;;;;;;;5.80;4.87;;;;;;;;;;5093055;28;20259;-79
2023/03/07 11:25:54;;;;;;;9.03;7.97;;;;;;;;;;5080346;28;20258;-80
2023/03/07 11:28:27;;;;;;;5.63;5.13;;;;;;;;;;5092647;28;20286;-79
2023/03/07 11:31:08;;;;;;;8.23;7.40;;;;;;;;;;5092750;28;20204;-80
2023/03/07 11:33:45;;;;;;;5.17;4.00;;;;;;;;;;5092468;28;20646;-79
2023/03/07 11:36:14;;;;;;;7.20;5.77;;;;;;;;;;5079878;28;20248;-79
2023/03/07 11:38:49;;;;;;;8.07;5.20;;;;;;;;;;5092187;28;20225;-79
2023/03/07 11:41:21;;;;;;;7.33;4.33;;;;;;;;;;5092839;28;20201;-79
2023/03/07 11:44:23;;;;;;;5.27;4.50;;;;;;;;;;5092475;28;20201;-81
2023/03/07 11:47:07;;;;;;;5.13;4.47;;;;;;;;;;5086055;28;20207;-79
2023/03/07 11:49:45;;;;;;;8.20;6.30;;;;;;;;;;5088420;28;20575;-79
2023/03/07 11:52:23;;;;;;;28.93;17.83;;;;;;;;;;5091933;28;20203;-80
2023/03/07 11:54:59;;;;;;;7.33;4.53;;;;;;;;;;5078447;28;20293;-80
2023/03/07 11:57:37;;;;;;;6.93;5.83;;;;;;;;;;5078557;28;20225;-79
2023/03/07 12:00:18;;;;;;;5.63;4.97;;;;;;;;;;5092675;28;20254;-80
2023/03/07 12:03:15;;;;;;;6.97;5.90;;;;;;;;;;5086932;28;20198;-80
2023/03/07 12:05:53;;;;;;;6.10;5.30;;;;;;;;;;5086900;28;20217;-79
2023/03/07 12:08:40;;;;;;;5.50;4.50;;;;;;;;;;5092226;28;20236;-80
2023/03/07 12:11:40;;;;;;;7.13;4.80;;;;;;;;;;5064535;28;20195;-79
2023/03/07 12:14:20;;;;;;;10.40;6.20;;;;;;;;;;5090628;28;20196;-79
2023/03/07 12:16:53;;;;;;;10.93;9.77;;;;;;;;;;5091714;28;20207;-79
2023/03/07 12:19:45;;;;;;;6.10;5.00;;;;;;;;;;5065241;28;20202;-79
2023/03/07 12:22:23;;;;;;;12.30;11.10;;;;;;;;;;5073932;28;20721;-80
2023/03/07 12:25:02;;;;;;;5.03;4.60;;;;;;;;;;5071772;28;20293;-80
2023/03/07 12:27:32;;;;;;;8.87;7.50;;;;;;;;;;5078602;28;20221;-79
2023/03/07 12:30:03;;;;;;;11.53;10.33;;;;;;;;;;5090901;28;20214;-80
2023/03/07 12:32:32;;;;;;;6.10;5.60;;;;;;;;;;5091624;28;20228;-80
2023/03/07 12:35:03;;;;;;;7.47;6.17;;;;;;;;;;5091991;28;20635;-79
2023/03/07 12:37:33;;;;;;;4.10;3.53;;;;;;;;;;5091564;28;20311;-79
2023/03/07 12:40:02;;;;;;;5.13;4.63;;;;;;;;;;5091168;28;20744;-79
2023/03/07 12:42:32;;;;;;;4.93;4.20;;;;;;;;;;5080750;28;20227;-80
2023/03/07 12:45:05;;;;;;;6.83;4.03;;;;;;;;;;5088501;28;20215;-79
2023/03/07 12:47:36;;;;;;;5.50;3.10;;;;;;;;;;5091666;28;20204;-79
2023/03/07 12:50:10;;;;;;;3.70;3.40;;;;;;;;;;5085143;28;20201;-79
2023/03/07 12:52:41;;;;;;;3.57;3.27;;;;;;;;;;5071983;28;20208;-80
2023/03/07 12:55:18;;;;;;;3.20;2.90;;;;;;;;;;5091196;28;20196;-80
2023/03/07 12:57:50;;;;;;;4.10;3.30;;;;;;;;;;5088301;28;20303;-79
2023/03/07 13:00:20;;;;;;;5.80;5.30;;;;;;;;;;5071241;28;20299;-81
2023/03/07 13:02:53;;;;;;;6.57;4.63;;;;;;;;;;5089147;28;20213;-79
2023/03/07 13:05:20;;;;;;;4.70;4.30;;;;;;;;;;5090767;28;20302;-79
2023/03/07 13:07:48;;;;;;;4.23;3.30;;;;;;;;;;5077781;28;20234;-79
2023/03/07 13:10:18;;;;;;;5.67;3.90;;;;;;;;;;5090692;28;20257;-79
2023/03/07 13:12:45;;;;;;;4.40;4.00;;;;;;;;;;5090984;28;20211;-79
2023/03/07 13:16:01;;;;;;;3.30;3.07;;;;;;;;;;5077866;28;20636;-80
2023/03/07 13:18:30;;;;;;;2.80;2.60;;;;;;;;;;5077378;28;20377;-79
2023/03/07 13:21:08;;;;;;;3.33;3.03;;;;;;;;;;5064947;28;20728;-79
2023/03/07 13:23:35;;;;;;;4.13;2.40;;;;;;;;;;5078032;28;20261;-79
2023/03/07 13:26:07;;;;;;;3.10;2.80;;;;;;;;;;5090950;28;20201;-79
2023/03/07 13:28:46;;;;;;;3.23;2.80;;;;;;;;;;5087392;28;20682;-80
2023/03/07 13:31:29;;;;;;;4.73;4.33;;;;;;;;;;5083080;28;20592;-79
2023/03/07 13:33:56;;;;;;;9.53;7.70;;;;;;;;;;5065566;28;20672;-79
2023/03/07 13:36:37;;;;;;;4.40;4.00;;;;;;;;;;5090004;28;20203;-79
2023/03/07 13:39:36;;;;;;;4.63;2.37;;;;;;;;;;5080477;28;20712;-79
2023/03/07 13:42:04;;;;;;;4.37;3.97;;;;;;;;;;5090507;28;20746;-79
2023/03/07 13:44:37;;;;;;;3.80;3.03;;;;;;;;;;5090496;28;20700;-79
2023/03/07 13:47:42;;;;;;;2.63;2.43;;;;;;;;;;5081352;28;20262;-79
2023/03/07 13:50:37;;;;;;;2.40;2.20;;;;;;;;;;5078451;28;20202;-80
2023/03/07 13:53:10;;;;;;;2.93;2.63;;;;;;;;;;5072160;28;20208;-79
2023/03/07 13:55:39;;;;;;;5.23;2.47;;;;;;;;;;5083228;28;20636;-79
2023/03/07 13:58:20;;;;;;;3.30;3.00;;;;;;;;;;5067864;28;20312;-79
2023/03/07 14:00:55;;;;;;;3.33;3.07;;;;;;;;;;5081361;28;20278;-79
2023/03/07 14:03:31;;;;;;;3.93;3.53;;;;;;;;;;5094421;28;20263;-79
2023/03/07 14:06:03;;;;;;;2.40;2.20;;;;;;;;;;5088815;28;20294;-79
2023/03/07 14:08:34;;;;;;;3.00;2.70;;;;;;;;;;5087404;28;20236;-78
2023/03/07 14:11:01;;;;;;;4.17;2.83;;;;;;;;;;5094153;28;20291;-79
2023/03/07 14:13:37;;;;;;;3.03;2.83;;;;;;;;;;5094773;28;20201;-79
2023/03/07 14:16:23;;;;;;;2.83;2.60;;;;;;;;;;5093644;28;20746;-78
2023/03/07 14:18:59;;;;;;;3.40;3.10;;;;;;;;;;5094208;28;20225;-79
2023/03/07 14:21:32;;;;;;;1.90;1.73;;;;;;;;;;5093971;28;20262;-78
2023/03/07 14:24:20;;;;;;;3.30;2.23;;;;;;;;;;5094075;28;20202;-79
2023/03/07 14:26:49;;;;;;;3.60;2.47;;;;;;;;;;5091799;28;20207;-79
2023/03/07 14:29:18;;;;;;;3.47;2.60;;;;;;;;;;5082248;28;20246;-78
2023/03/07 14:31:48;;;;;;;2.60;2.40;;;;;;;;;;5093935;28;20207;-79
2023/03/07 14:34:27;;;;;;;5.03;3.40;;;;;;;;;;5094334;28;20206;-79
2023/03/07 14:36:55;;;;;;;4.13;2.70;;;;;;;;;;5093189;28;20638;-79
2023/03/07 14:39:22;;;;;;;1.60;1.50;;;;;;;;;;5093905;28;20315;-79
2023/03/07 14:41:56;;;;;;;3.67;2.83;;;;;;;;;;5093543;28;20258;-79
2023/03/07 14:44:39;;;;;;;3.97;1.53;;;;;;;;;;5093768;28;20207;-79